עמוד ראשי
METAR-TAF:

METAR-TAF

שדות תעופה :

New Smyrna Beach Municipal Airport

New Smyrna Beach, פלורידה, ארצות הברית

קו רוחב: 29-03-20N, קו אורך: 080-56-54W, גובה: 3מטר

תצפית מזג אוויר נוכחית

הדו"ח נערך לפני 59דקות, בשעה 16:50 UTC
רוח 14קשר מכיוון מזרח/דרום-מזרח
טמפרטורת 30 צלסיוס
לחות 75%
לחץ 1019 hPa
ראות: 16.1קילומטר
עננים פזורים בגובה 2200רגל

METAR: KEVB 171650Z 12014KT 10SM SCT022 30/25 A3009

זמן: 13:49 (17:49 UTC)


TAF: חסר

תצפיות ותחזיות מזג אוויר לגבי יותר מ- 4,000 שדות תעופה ברחבי העולם. דוחות METAR ו- TAF.

התחנות הזמינות מסומנות בנקודות צהובות ואדומות על גבי המפה.

העבר את העכבר לנקודה הצבעונית על מנת לראות את שם התחנה.

לאחר מכן, לחץ כדי לראות את תוכן ואת תחזיות מזג האוויר.

כדי לשנות את המפה: לחץ על הכפתורים הירוקים עם הפלוס השחור כדי להתקרב; על הכפתור הירוק עם המקף כדי להתרחק; או בחיצים הירוקים למפות סמוכות.


METAR-TAF: